sensor_id;sensor_type;location;lat;lon;timestamp;pressure;altitude;pressure_sealevel;temperature;humidity
7760;BME280;3924;48.830;9.262;2022-08-21T00:00:19;98682.41;;;17.95;78.50
7760;BME280;3924;48.830;9.262;2022-08-21T00:03:12;98672.13;;;17.92;78.50
7760;BME280;3924;48.830;9.262;2022-08-21T00:05:46;98677.81;;;17.87;78.89
7760;BME280;3924;48.830;9.262;2022-08-21T00:08:13;98679.59;;;17.83;79.00
7760;BME280;3924;48.830;9.262;2022-08-21T00:10:40;98674.13;;;17.83;78.86
7760;BME280;3924;48.830;9.262;2022-08-21T00:13:07;98673.47;;;17.86;78.94
7760;BME280;3924;48.830;9.262;2022-08-21T00:15:35;98675.97;;;17.91;79.05
7760;BME280;3924;48.830;9.262;2022-08-21T00:18:04;98674.38;;;17.90;79.36
7760;BME280;3924;48.830;9.262;2022-08-21T00:20:32;98667.84;;;17.82;79.09
7760;BME280;3924;48.830;9.262;2022-08-21T00:22:58;98660.16;;;17.75;79.21
7760;BME280;3924;48.830;9.262;2022-08-21T00:25:25;98666.34;;;17.72;79.34
7760;BME280;3924;48.830;9.262;2022-08-21T00:27:52;98666.50;;;17.67;79.57
7760;BME280;3924;48.830;9.262;2022-08-21T00:30:20;98663.31;;;17.65;79.64
7760;BME280;3924;48.830;9.262;2022-08-21T00:32:50;98663.50;;;17.60;79.44
7760;BME280;3924;48.830;9.262;2022-08-21T00:35:21;98664.66;;;17.59;79.56
7760;BME280;3924;48.830;9.262;2022-08-21T00:37:48;98669.78;;;17.61;79.49
7760;BME280;3924;48.830;9.262;2022-08-21T00:40:19;98673.31;;;17.61;79.55
7760;BME280;3924;48.830;9.262;2022-08-21T00:42:46;98678.00;;;17.61;79.61
7760;BME280;3924;48.830;9.262;2022-08-21T00:45:20;98674.47;;;17.60;79.79
7760;BME280;3924;48.830;9.262;2022-08-21T00:47:47;98662.56;;;17.56;79.70
7760;BME280;3924;48.830;9.262;2022-08-21T00:50:13;98660.97;;;17.55;80.22
7760;BME280;3924;48.830;9.262;2022-08-21T00:52:47;98661.84;;;17.47;79.94
7760;BME280;3924;48.830;9.262;2022-08-21T00:55:15;98664.66;;;17.38;79.91
7760;BME280;3924;48.830;9.262;2022-08-21T00:57:46;98661.31;;;17.33;80.07
7760;BME280;3924;48.830;9.262;2022-08-21T01:00:19;98660.50;;;17.32;80.05
7760;BME280;3924;48.830;9.262;2022-08-21T01:02:46;98662.00;;;17.30;79.90
7760;BME280;3924;48.830;9.262;2022-08-21T01:05:13;98660.78;;;17.18;80.23
7760;BME280;3924;48.830;9.262;2022-08-21T01:07:41;98660.63;;;17.15;80.20
7760;BME280;3924;48.830;9.262;2022-08-21T01:10:08;98657.69;;;17.20;80.38
7760;BME280;3924;48.830;9.262;2022-08-21T01:12:46;98661.38;;;17.24;80.33
7760;BME280;3924;48.830;9.262;2022-08-21T01:15:14;98653.22;;;17.15;80.47
7760;BME280;3924;48.830;9.262;2022-08-21T01:17:41;98663.97;;;17.20;80.57
7760;BME280;3924;48.830;9.262;2022-08-21T01:20:10;98667.41;;;17.17;80.39
7760;BME280;3924;48.830;9.262;2022-08-21T01:22:37;98657.94;;;17.06;80.61
7760;BME280;3924;48.830;9.262;2022-08-21T01:25:06;98654.75;;;17.04;80.51
7760;BME280;3924;48.830;9.262;2022-08-21T01:27:33;98653.00;;;17.00;80.41
7760;BME280;3924;48.830;9.262;2022-08-21T01:30:09;98658.47;;;17.00;80.60
7760;BME280;3924;48.830;9.262;2022-08-21T01:32:36;98656.69;;;17.04;80.62
7760;BME280;3924;48.830;9.262;2022-08-21T01:35:04;98653.63;;;17.05;80.65
7760;BME280;3924;48.830;9.262;2022-08-21T01:37:30;98657.94;;;17.06;80.41
7760;BME280;3924;48.830;9.262;2022-08-21T01:39:57;98660.34;;;17.08;80.68
7760;BME280;3924;48.830;9.262;2022-08-21T01:42:25;98657.63;;;17.08;80.66
7760;BME280;3924;48.830;9.262;2022-08-21T01:44:52;98661.16;;;17.08;80.66
7760;BME280;3924;48.830;9.262;2022-08-21T01:47:22;98654.88;;;17.08;80.82
7760;BME280;3924;48.830;9.262;2022-08-21T01:49:49;98650.06;;;17.05;80.67
7760;BME280;3924;48.830;9.262;2022-08-21T01:52:16;98653.81;;;17.00;80.75
7760;BME280;3924;48.830;9.262;2022-08-21T01:54:43;98657.22;;;16.97;80.90
7760;BME280;3924;48.830;9.262;2022-08-21T01:57:11;98652.88;;;16.96;81.07
7760;BME280;3924;48.830;9.262;2022-08-21T01:59:38;98648.53;;;16.95;80.71
7760;BME280;3924;48.830;9.262;2022-08-21T02:02:06;98649.00;;;16.97;80.88
7760;BME280;3924;48.830;9.262;2022-08-21T02:04:33;98649.66;;;16.94;80.74
7760;BME280;3924;48.830;9.262;2022-08-21T02:07:00;98650.97;;;16.88;80.75
7760;BME280;3924;48.830;9.262;2022-08-21T02:09:27;98638.13;;;16.80;80.96
7760;BME280;3924;48.830;9.262;2022-08-21T02:11:55;98644.94;;;16.74;81.24
7760;BME280;3924;48.830;9.262;2022-08-21T02:14:22;98633.69;;;16.66;81.14
7760;BME280;3924;48.830;9.262;2022-08-21T02:16:59;98639.06;;;16.54;80.92
7760;BME280;3924;48.830;9.262;2022-08-21T02:19:36;98642.47;;;16.51;81.40
7760;BME280;3924;48.830;9.262;2022-08-21T02:22:07;98640.69;;;16.47;80.91
7760;BME280;3924;48.830;9.262;2022-08-21T02:24:35;98633.78;;;16.49;81.28
7760;BME280;3924;48.830;9.262;2022-08-21T02:27:19;98633.63;;;16.46;81.25
7760;BME280;3924;48.830;9.262;2022-08-21T02:29:53;98635.28;;;16.38;81.31
7760;BME280;3924;48.830;9.262;2022-08-21T02:32:19;98630.81;;;16.33;81.33
7760;BME280;3924;48.830;9.262;2022-08-21T02:34:47;98626.78;;;16.31;81.15
7760;BME280;3924;48.830;9.262;2022-08-21T02:37:15;98629.03;;;16.29;81.21
7760;BME280;3924;48.830;9.262;2022-08-21T02:39:42;98634.13;;;16.39;81.38
7760;BME280;3924;48.830;9.262;2022-08-21T02:42:09;98628.38;;;16.32;81.05
7760;BME280;3924;48.830;9.262;2022-08-21T02:44:36;98639.03;;;16.25;81.29
7760;BME280;3924;48.830;9.262;2022-08-21T02:47:02;98637.28;;;16.20;81.33
7760;BME280;3924;48.830;9.262;2022-08-21T02:49:32;98638.22;;;16.24;81.48
7760;BME280;3924;48.830;9.262;2022-08-21T02:52:01;98643.69;;;16.24;81.16
7760;BME280;3924;48.830;9.262;2022-08-21T02:54:28;98635.66;;;16.19;81.27
7760;BME280;3924;48.830;9.262;2022-08-21T02:56:54;98643.06;;;16.19;81.18
7760;BME280;3924;48.830;9.262;2022-08-21T02:59:21;98647.78;;;16.09;81.32
7760;BME280;3924;48.830;9.262;2022-08-21T03:01:48;98643.13;;;16.01;81.41
7760;BME280;3924;48.830;9.262;2022-08-21T03:04:15;98641.69;;;15.95;81.51
7760;BME280;3924;48.830;9.262;2022-08-21T03:06:41;98642.84;;;15.94;81.19
7760;BME280;3924;48.830;9.262;2022-08-21T03:09:09;98632.69;;;15.95;81.44
7760;BME280;3924;48.830;9.262;2022-08-21T03:11:35;98647.97;;;15.96;81.62
7760;BME280;3924;48.830;9.262;2022-08-21T03:14:02;98644.56;;;15.99;81.04
7760;BME280;3924;48.830;9.262;2022-08-21T03:16:29;98641.03;;;15.98;81.23
7760;BME280;3924;48.830;9.262;2022-08-21T03:19:01;98641.34;;;16.05;81.32
7760;BME280;3924;48.830;9.262;2022-08-21T03:21:31;98639.09;;;16.07;81.30
7760;BME280;3924;48.830;9.262;2022-08-21T03:23:57;98637.00;;;16.04;81.14
7760;BME280;3924;48.830;9.262;2022-08-21T03:26:24;98638.31;;;15.98;81.31
7760;BME280;3924;48.830;9.262;2022-08-21T03:28:53;98642.38;;;15.92;81.22
7760;BME280;3924;48.830;9.262;2022-08-21T03:31:19;98639.63;;;15.83;81.54
7760;BME280;3924;48.830;9.262;2022-08-21T03:33:51;98645.59;;;15.85;81.38
7760;BME280;3924;48.830;9.262;2022-08-21T03:36:21;98640.28;;;15.80;81.50
7760;BME280;3924;48.830;9.262;2022-08-21T03:38:50;98645.91;;;15.84;81.33
7760;BME280;3924;48.830;9.262;2022-08-21T03:41:17;98645.91;;;15.84;81.29
7760;BME280;3924;48.830;9.262;2022-08-21T03:43:44;98642.06;;;15.76;81.31
7760;BME280;3924;48.830;9.262;2022-08-21T03:46:10;98651.53;;;15.70;81.26
7760;BME280;3924;48.830;9.262;2022-08-21T03:48:40;98647.22;;;15.69;81.62
7760;BME280;3924;48.830;9.262;2022-08-21T03:51:07;98657.19;;;15.74;81.35
7760;BME280;3924;48.830;9.262;2022-08-21T03:53:36;98644.66;;;15.73;81.58
7760;BME280;3924;48.830;9.262;2022-08-21T03:56:04;98658.97;;;15.78;81.48
7760;BME280;3924;48.830;9.262;2022-08-21T03:58:30;98657.81;;;15.79;81.44
7760;BME280;3924;48.830;9.262;2022-08-21T04:00:59;98658.75;;;15.83;81.42
7760;BME280;3924;48.830;9.262;2022-08-21T04:03:27;98663.09;;;15.84;81.56
7760;BME280;3924;48.830;9.262;2022-08-21T04:05:53;98658.44;;;15.85;81.43
7760;BME280;3924;48.830;9.262;2022-08-21T04:08:20;98662.31;;;15.84;81.39
7760;BME280;3924;48.830;9.262;2022-08-21T04:10:50;98662.16;;;15.80;81.88
7760;BME280;3924;48.830;9.262;2022-08-21T04:13:18;98660.88;;;15.86;81.27
7760;BME280;3924;48.830;9.262;2022-08-21T04:15:44;98666.47;;;15.90;81.42
7760;BME280;3924;48.830;9.262;2022-08-21T04:18:11;98663.59;;;15.86;81.32
7760;BME280;3924;48.830;9.262;2022-08-21T04:20:40;98663.44;;;15.83;81.30
7760;BME280;3924;48.830;9.262;2022-08-21T04:23:10;98665.69;;;15.81;81.34
7760;BME280;3924;48.830;9.262;2022-08-21T04:25:49;98664.56;;;15.82;81.56
7760;BME280;3924;48.830;9.262;2022-08-21T04:28:15;98672.28;;;15.80;81.28
7760;BME280;3924;48.830;9.262;2022-08-21T04:30:42;98672.94;;;15.77;81.37
7760;BME280;3924;48.830;9.262;2022-08-21T04:33:09;98674.53;;;15.78;81.33
7760;BME280;3924;48.830;9.262;2022-08-21T04:35:35;98688.84;;;15.75;81.15
7760;BME280;3924;48.830;9.262;2022-08-21T04:38:02;98686.13;;;15.75;81.31
7760;BME280;3924;48.830;9.262;2022-08-21T04:40:28;98697.72;;;15.72;81.45
7760;BME280;3924;48.830;9.262;2022-08-21T04:43:04;98699.31;;;15.73;81.40
7760;BME280;3924;48.830;9.262;2022-08-21T04:45:42;98692.88;;;15.69;81.52
7760;BME280;3924;48.830;9.262;2022-08-21T04:48:12;98698.81;;;15.71;81.24
7760;BME280;3924;48.830;9.262;2022-08-21T04:53:29;98691.75;;;15.70;81.10
7760;BME280;3924;48.830;9.262;2022-08-21T04:56:01;98693.34;;;15.53;81.20
7760;BME280;3924;48.830;9.262;2022-08-21T04:58:28;98708.44;;;15.51;81.35
7760;BME280;3924;48.830;9.262;2022-08-21T05:00:56;98706.03;;;15.49;81.55
7760;BME280;3924;48.830;9.262;2022-08-21T05:03:24;98706.34;;;15.56;81.44
7760;BME280;3924;48.830;9.262;2022-08-21T05:05:52;98702.66;;;15.61;81.45
7760;BME280;3924;48.830;9.262;2022-08-21T05:08:21;98703.81;;;15.69;81.29
7760;BME280;3924;48.830;9.262;2022-08-21T05:10:51;98705.25;;;15.75;81.23
7760;BME280;3924;48.830;9.262;2022-08-21T05:13:23;98706.69;;;15.81;81.42
7760;BME280;3924;48.830;9.262;2022-08-21T05:15:51;98694.47;;;15.87;81.26
7760;BME280;3924;48.830;9.262;2022-08-21T05:18:18;98705.88;;;15.98;80.96
7760;BME280;3924;48.830;9.262;2022-08-21T05:20:48;98704.44;;;16.00;80.81
7760;BME280;3924;48.830;9.262;2022-08-21T05:23:15;98711.47;;;16.10;80.73
7760;BME280;3924;48.830;9.262;2022-08-21T05:25:42;98715.97;;;16.14;80.20
7760;BME280;3924;48.830;9.262;2022-08-21T05:28:11;98715.69;;;16.07;80.70
7760;BME280;3924;48.830;9.262;2022-08-21T05:30:39;98712.63;;;16.09;80.39
7760;BME280;3924;48.830;9.262;2022-08-21T05:33:06;98723.56;;;16.09;80.49
7760;BME280;3924;48.830;9.262;2022-08-21T05:35:34;98708.41;;;16.11;80.38
7760;BME280;3924;48.830;9.262;2022-08-21T05:38:01;98718.06;;;16.18;80.17
7760;BME280;3924;48.830;9.262;2022-08-21T05:40:29;98721.09;;;16.25;80.40
7760;BME280;3924;48.830;9.262;2022-08-21T05:42:56;98719.97;;;16.34;80.01
7760;BME280;3924;48.830;9.262;2022-08-21T05:45:28;98724.25;;;16.44;79.62
7760;BME280;3924;48.830;9.262;2022-08-21T05:48:15;98729.56;;;16.49;79.62
7760;BME280;3924;48.830;9.262;2022-08-21T05:50:46;98731.00;;;16.55;79.52
7760;BME280;3924;48.830;9.262;2022-08-21T05:53:15;98728.91;;;16.61;79.54
7760;BME280;3924;48.830;9.262;2022-08-21T05:55:43;98726.28;;;16.64;79.38
7760;BME280;3924;48.830;9.262;2022-08-21T05:58:17;98726.94;;;16.70;79.30
7760;BME280;3924;48.830;9.262;2022-08-21T06:00:53;98727.38;;;16.81;79.21
7760;BME280;3924;48.830;9.262;2022-08-21T06:03:22;98728.59;;;16.92;78.75
7760;BME280;3924;48.830;9.262;2022-08-21T06:05:50;98725.97;;;17.04;78.79
7760;BME280;3924;48.830;9.262;2022-08-21T06:08:22;98722.13;;;17.26;78.38
7760;BME280;3924;48.830;9.262;2022-08-21T06:10:52;98715.53;;;17.48;77.88
7760;BME280;3924;48.830;9.262;2022-08-21T06:13:21;98722.31;;;17.71;77.33
7760;BME280;3924;48.830;9.262;2022-08-21T06:15:48;98725.50;;;17.94;77.33
7760;BME280;3924;48.830;9.262;2022-08-21T06:18:16;98723.59;;;18.07;76.80
7760;BME280;3924;48.830;9.262;2022-08-21T06:20:47;98718.16;;;18.19;76.63
7760;BME280;3924;48.830;9.262;2022-08-21T06:23:14;98721.66;;;18.41;76.15
7760;BME280;3924;48.830;9.262;2022-08-21T06:25:42;98725.31;;;18.57;75.89
7760;BME280;3924;48.830;9.262;2022-08-21T06:28:09;98725.81;;;18.71;75.43
7760;BME280;3924;48.830;9.262;2022-08-21T06:30:41;98719.66;;;18.74;75.00
7760;BME280;3924;48.830;9.262;2022-08-21T06:33:08;98725.59;;;18.76;75.32
7760;BME280;3924;48.830;9.262;2022-08-21T06:35:35;98717.81;;;18.91;74.76
7760;BME280;3924;48.830;9.262;2022-08-21T06:38:02;98719.41;;;18.92;74.76
7760;BME280;3924;48.830;9.262;2022-08-21T06:40:30;98708.66;;;18.99;74.49
7760;BME280;3924;48.830;9.262;2022-08-21T06:43:26;98708.16;;;19.21;74.22
7760;BME280;3924;48.830;9.262;2022-08-21T06:46:05;98709.97;;;19.41;73.75
7760;BME280;3924;48.830;9.262;2022-08-21T06:48:32;98710.41;;;19.56;73.11
7760;BME280;3924;48.830;9.262;2022-08-21T06:51:00;98707.56;;;19.64;73.02
7760;BME280;3924;48.830;9.262;2022-08-21T06:53:27;98712.19;;;19.76;72.77
7760;BME280;3924;48.830;9.262;2022-08-21T06:55:53;98708.50;;;19.84;72.63
7760;BME280;3924;48.830;9.262;2022-08-21T06:58:20;98699.66;;;19.91;72.53
7760;BME280;3924;48.830;9.262;2022-08-21T07:00:48;98709.16;;;19.93;72.01
7760;BME280;3924;48.830;9.262;2022-08-21T07:03:24;98705.19;;;20.07;71.60
7760;BME280;3924;48.830;9.262;2022-08-21T07:05:51;98702.38;;;20.19;71.24
7760;BME280;3924;48.830;9.262;2022-08-21T07:08:17;98705.22;;;20.22;70.97
7760;BME280;3924;48.830;9.262;2022-08-21T07:10:44;98699.47;;;20.28;70.50
7760;BME280;3924;48.830;9.262;2022-08-21T07:13:11;98699.59;;;20.47;70.32
7760;BME280;3924;48.830;9.262;2022-08-21T07:15:38;98705.03;;;20.59;69.72
7760;BME280;3924;48.830;9.262;2022-08-21T07:18:04;98699.31;;;20.84;68.99
7760;BME280;3924;48.830;9.262;2022-08-21T07:20:31;98697.06;;;21.05;68.45
7760;BME280;3924;48.830;9.262;2022-08-21T07:23:02;98701.59;;;21.29;67.68
7760;BME280;3924;48.830;9.262;2022-08-21T07:25:29;98698.34;;;21.43;67.48
7760;BME280;3924;48.830;9.262;2022-08-21T07:27:56;98692.59;;;21.32;67.66
7760;BME280;3924;48.830;9.262;2022-08-21T07:30:23;98692.16;;;21.30;67.22
7760;BME280;3924;48.830;9.262;2022-08-21T07:32:50;98700.31;;;21.42;67.27
7760;BME280;3924;48.830;9.262;2022-08-21T07:35:18;98691.47;;;21.52;66.93
7760;BME280;3924;48.830;9.262;2022-08-21T07:37:45;98696.59;;;21.54;66.25
7760;BME280;3924;48.830;9.262;2022-08-21T07:40:12;98693.38;;;21.48;66.32
7760;BME280;3924;48.830;9.262;2022-08-21T07:42:40;98686.69;;;21.49;66.40
7760;BME280;3924;48.830;9.262;2022-08-21T07:45:08;98688.56;;;21.45;66.46
7760;BME280;3924;48.830;9.262;2022-08-21T07:47:35;98691.78;;;21.32;66.27
7760;BME280;3924;48.830;9.262;2022-08-21T07:50:09;98689.50;;;21.18;65.92
7760;BME280;3924;48.830;9.262;2022-08-21T07:52:38;98693.94;;;21.07;66.23
7760;BME280;3924;48.830;9.262;2022-08-21T07:55:06;98686.13;;;21.09;66.49
7760;BME280;3924;48.830;9.262;2022-08-21T07:57:33;98693.41;;;21.17;66.13
7760;BME280;3924;48.830;9.262;2022-08-21T07:59:59;98692.59;;;21.32;65.32
7760;BME280;3924;48.830;9.262;2022-08-21T08:02:28;98686.69;;;21.49;64.97
7760;BME280;3924;48.830;9.262;2022-08-21T08:04:59;98690.03;;;21.78;64.41
7760;BME280;3924;48.830;9.262;2022-08-21T08:07:27;98682.72;;;21.89;63.94
7760;BME280;3924;48.830;9.262;2022-08-21T08:09:54;98680.56;;;21.98;63.91
7760;BME280;3924;48.830;9.262;2022-08-21T08:12:20;98675.56;;;22.04;63.75
7760;BME280;3924;48.830;9.262;2022-08-21T08:14:47;98681.91;;;22.08;63.28
7760;BME280;3924;48.830;9.262;2022-08-21T08:17:14;98675.59;;;22.07;63.23
7760;BME280;3924;48.830;9.262;2022-08-21T08:19:40;98674.00;;;22.26;62.42
7760;BME280;3924;48.830;9.262;2022-08-21T08:22:18;98675.97;;;22.48;62.08
7760;BME280;3924;48.830;9.262;2022-08-21T08:24:48;98671.75;;;22.54;61.71
7760;BME280;3924;48.830;9.262;2022-08-21T08:27:15;98672.84;;;22.27;62.00
7760;BME280;3924;48.830;9.262;2022-08-21T08:29:43;98664.00;;;22.18;62.22
7760;BME280;3924;48.830;9.262;2022-08-21T08:32:10;98662.72;;;22.34;61.63
7760;BME280;3924;48.830;9.262;2022-08-21T08:34:37;98664.63;;;22.53;61.39
7760;BME280;3924;48.830;9.262;2022-08-21T08:37:07;98656.34;;;22.80;60.73
7760;BME280;3924;48.830;9.262;2022-08-21T08:39:34;98650.22;;;22.90;60.43
7760;BME280;3924;48.830;9.262;2022-08-21T08:42:17;98638.63;;;23.07;60.08
7760;BME280;3924;48.830;9.262;2022-08-21T08:45:09;98645.06;;;23.15;59.63
7760;BME280;3924;48.830;9.262;2022-08-21T08:47:40;98645.19;;;23.26;59.47
7760;BME280;3924;48.830;9.262;2022-08-21T08:50:29;98639.75;;;23.33;59.36
7760;BME280;3924;48.830;9.262;2022-08-21T08:53:04;98639.97;;;23.47;58.61
7760;BME280;3924;48.830;9.262;2022-08-21T08:55:38;98638.88;;;23.55;58.18
7760;BME280;3924;48.830;9.262;2022-08-21T08:58:06;98636.81;;;23.48;58.65
7760;BME280;3924;48.830;9.262;2022-08-21T09:00:35;98638.34;;;23.46;58.52
7760;BME280;3924;48.830;9.262;2022-08-21T09:03:02;98639.66;;;23.56;58.11
7760;BME280;3924;48.830;9.262;2022-08-21T09:27:18;98624.81;;;24.05;55.89
7760;BME280;3924;48.830;9.262;2022-08-21T09:29:47;98622.63;;;24.24;55.40
7760;BME280;3924;48.830;9.262;2022-08-21T09:32:29;98618.53;;;24.52;54.76
7760;BME280;3924;48.830;9.262;2022-08-21T09:35:14;98618.19;;;24.57;54.85
7760;BME280;3924;48.830;9.262;2022-08-21T09:38:01;98615.00;;;24.59;54.42
7760;BME280;3924;48.830;9.262;2022-08-21T09:43:06;98618.81;;;24.40;54.21
7760;BME280;3924;48.830;9.262;2022-08-21T09:45:37;98617.13;;;24.32;54.02
7760;BME280;3924;48.830;9.262;2022-08-21T09:48:24;98612.72;;;24.23;53.88
7760;BME280;3924;48.830;9.262;2022-08-21T09:50:53;98610.63;;;24.13;54.31
7760;BME280;3924;48.830;9.262;2022-08-21T09:53:28;98602.06;;;24.29;53.72
7760;BME280;3924;48.830;9.262;2022-08-21T09:56:17;98598.31;;;24.51;53.42
7760;BME280;3924;48.830;9.262;2022-08-21T09:59:14;98603.13;;;24.58;52.94
7760;BME280;3924;48.830;9.262;2022-08-21T10:01:46;98598.78;;;24.61;52.47
7760;BME280;3924;48.830;9.262;2022-08-21T10:04:14;98602.50;;;24.82;52.08
7760;BME280;3924;48.830;9.262;2022-08-21T10:06:42;98598.66;;;25.01;51.73
7760;BME280;3924;48.830;9.262;2022-08-21T10:09:14;98593.59;;;25.14;51.54
7760;BME280;3924;48.830;9.262;2022-08-21T10:15:01;98586.91;;;25.19;51.22
7760;BME280;3924;48.830;9.262;2022-08-21T10:17:38;98582.97;;;25.30;50.84
7760;BME280;3924;48.830;9.262;2022-08-21T10:20:13;98586.19;;;25.40;50.06
7760;BME280;3924;48.830;9.262;2022-08-21T10:25:44;98581.47;;;25.54;49.85
7760;BME280;3924;48.830;9.262;2022-08-21T10:28:41;98583.88;;;25.67;49.45
7760;BME280;3924;48.830;9.262;2022-08-21T10:34:20;98573.25;;;25.83;48.45
7760;BME280;3924;48.830;9.262;2022-08-21T10:40:19;98570.47;;;25.94;48.05
7760;BME280;3924;48.830;9.262;2022-08-21T10:43:33;98567.69;;;26.01;48.07
7760;BME280;3924;48.830;9.262;2022-08-21T10:48:48;98564.91;;;25.76;47.87
7760;BME280;3924;48.830;9.262;2022-08-21T10:54:11;98559.00;;;26.02;47.19
7760;BME280;3924;48.830;9.262;2022-08-21T10:56:50;98553.84;;;26.15;47.28
7760;BME280;3924;48.830;9.262;2022-08-21T10:59:28;98547.09;;;26.23;47.22
7760;BME280;3924;48.830;9.262;2022-08-21T11:04:38;98553.03;;;26.61;46.16
7760;BME280;3924;48.830;9.262;2022-08-21T11:07:31;98541.09;;;26.67;46.14
7760;BME280;3924;48.830;9.262;2022-08-21T11:13:19;98546.66;;;26.71;45.62
7760;BME280;3924;48.830;9.262;2022-08-21T11:16:37;98537.09;;;26.76;45.50
7760;BME280;3924;48.830;9.262;2022-08-21T11:19:21;98535.53;;;26.71;45.11
7760;BME280;3924;48.830;9.262;2022-08-21T11:22:21;98537.47;;;26.81;45.11
7760;BME280;3924;48.830;9.262;2022-08-21T11:25:21;98538.66;;;26.87;45.06
7760;BME280;3924;48.830;9.262;2022-08-21T11:27:54;98535.06;;;26.97;44.78
7760;BME280;3924;48.830;9.262;2022-08-21T11:30:28;98530.66;;;27.11;44.36
7760;BME280;3924;48.830;9.262;2022-08-21T11:35:58;98527.47;;;27.16;44.10
7760;BME280;3924;48.830;9.262;2022-08-21T11:38:39;98525.44;;;27.27;43.79
7760;BME280;3924;48.830;9.262;2022-08-21T11:41:17;98518.63;;;27.39;43.52
7760;BME280;3924;48.830;9.262;2022-08-21T11:46:43;98518.88;;;27.59;42.92
7760;BME280;3924;48.830;9.262;2022-08-21T11:52:21;98511.72;;;27.61;42.53
7760;BME280;3924;48.830;9.262;2022-08-21T11:55:04;98515.03;;;27.38;43.18
7760;BME280;3924;48.830;9.262;2022-08-21T11:57:43;98507.47;;;27.39;42.75
7760;BME280;3924;48.830;9.262;2022-08-21T12:00:22;98514.56;;;27.50;42.18
7760;BME280;3924;48.830;9.262;2022-08-21T12:02:54;98507.31;;;27.64;42.31
7760;BME280;3924;48.830;9.262;2022-08-21T12:05:38;98498.13;;;27.70;42.12
7760;BME280;3924;48.830;9.262;2022-08-21T12:10:46;98503.19;;;27.90;41.49
7760;BME280;3924;48.830;9.262;2022-08-21T12:13:26;98505.44;;;28.05;41.24
7760;BME280;3924;48.830;9.262;2022-08-21T12:16:14;98502.88;;;27.77;41.42
7760;BME280;3924;48.830;9.262;2022-08-21T12:18:42;98506.59;;;27.52;42.02
7760;BME280;3924;48.830;9.262;2022-08-21T12:21:26;98504.16;;;27.58;41.77
7760;BME280;3924;48.830;9.262;2022-08-21T12:24:17;98500.16;;;27.63;41.26
7760;BME280;3924;48.830;9.262;2022-08-21T12:27:00;98498.56;;;27.69;41.21
7760;BME280;3924;48.830;9.262;2022-08-21T12:38:14;98485.84;;;27.68;40.61
7760;BME280;3924;48.830;9.262;2022-08-21T12:41:04;98483.00;;;27.75;40.10
7760;BME280;3924;48.830;9.262;2022-08-21T12:43:40;98470.53;;;27.90;40.06
7760;BME280;3924;48.830;9.262;2022-08-21T12:46:17;98472.81;;;28.02;39.53
7760;BME280;3924;48.830;9.262;2022-08-21T12:48:51;98460.94;;;27.95;39.77
7760;BME280;3924;48.830;9.262;2022-08-21T12:51:46;98464.41;;;28.06;39.38
7760;BME280;3924;48.830;9.262;2022-08-21T12:54:26;98461.47;;;28.24;39.10
7760;BME280;3924;48.830;9.262;2022-08-21T12:57:04;98461.41;;;28.27;39.07
7760;BME280;3924;48.830;9.262;2022-08-21T12:59:36;98463.88;;;28.22;38.92
7760;BME280;3924;48.830;9.262;2022-08-21T13:02:15;98467.00;;;28.27;39.32
7760;BME280;3924;48.830;9.262;2022-08-21T13:04:54;98467.00;;;28.31;38.68
7760;BME280;3924;48.830;9.262;2022-08-21T13:07:47;98467.28;;;28.40;38.38
7760;BME280;3924;48.830;9.262;2022-08-21T13:10:24;98467.28;;;28.40;38.44
7760;BME280;3924;48.830;9.262;2022-08-21T13:12:59;98460.38;;;28.55;38.24
7760;BME280;3924;48.830;9.262;2022-08-21T13:16:04;98459.44;;;28.69;37.95
7760;BME280;3924;48.830;9.262;2022-08-21T13:19:01;98454.56;;;28.77;37.88
7760;BME280;3924;48.830;9.262;2022-08-21T13:21:40;98452.91;;;28.79;37.57
7760;BME280;3924;48.830;9.262;2022-08-21T13:24:27;98450.03;;;28.86;37.65
7760;BME280;3924;48.830;9.262;2022-08-21T13:27:34;98455.94;;;28.96;37.23
7760;BME280;3924;48.830;9.262;2022-08-21T13:30:12;98447.97;;;28.94;37.58
7760;BME280;3924;48.830;9.262;2022-08-21T13:32:50;98454.47;;;28.84;37.63
7760;BME280;3924;48.830;9.262;2022-08-21T13:35:21;98448.81;;;28.91;37.33
7760;BME280;3924;48.830;9.262;2022-08-21T13:37:49;98438.81;;;28.94;37.44
7760;BME280;3924;48.830;9.262;2022-08-21T13:40:38;98449.69;;;28.81;37.35
7760;BME280;3924;48.830;9.262;2022-08-21T13:43:12;98448.09;;;28.49;37.66
7760;BME280;3924;48.830;9.262;2022-08-21T13:45:47;98432.44;;;28.59;37.39
7760;BME280;3924;48.830;9.262;2022-08-21T13:48:14;98431.84;;;28.75;37.33
7760;BME280;3924;48.830;9.262;2022-08-21T13:50:42;98437.81;;;28.77;37.13
7760;BME280;3924;48.830;9.262;2022-08-21T13:53:27;98432.47;;;28.55;37.36
7760;BME280;3924;48.830;9.262;2022-08-21T13:55:55;98433.59;;;28.61;37.22
7760;BME280;3924;48.830;9.262;2022-08-21T13:58:43;98428.16;;;28.51;37.32
7760;BME280;3924;48.830;9.262;2022-08-21T14:03:50;98430.88;;;28.54;36.32
7760;BME280;3924;48.830;9.262;2022-08-21T14:06:21;98435.41;;;28.41;37.12
7760;BME280;3924;48.830;9.262;2022-08-21T14:08:55;98430.66;;;28.42;36.98
7760;BME280;3924;48.830;9.262;2022-08-21T14:11:24;98426.66;;;28.43;36.81
7760;BME280;3924;48.830;9.262;2022-08-21T14:16:28;98421.59;;;28.65;36.23
7760;BME280;3924;48.830;9.262;2022-08-21T14:21:35;98420.91;;;28.87;36.07
7760;BME280;3924;48.830;9.262;2022-08-21T14:24:05;98417.69;;;28.89;35.95
7760;BME280;3924;48.830;9.262;2022-08-21T14:26:34;98420.06;;;28.94;35.71
7760;BME280;3924;48.830;9.262;2022-08-21T14:29:00;98413.56;;;29.04;35.68
7760;BME280;3924;48.830;9.262;2022-08-21T14:31:35;98411.31;;;28.92;36.18
7760;BME280;3924;48.830;9.262;2022-08-21T14:34:11;98413.22;;;28.99;35.86
7760;BME280;3924;48.830;9.262;2022-08-21T14:36:47;98411.97;;;29.03;35.65
7760;BME280;3924;48.830;9.262;2022-08-21T14:39:13;98407.09;;;29.11;35.89
7760;BME280;3924;48.830;9.262;2022-08-21T14:41:41;98402.56;;;28.90;36.12
7760;BME280;3924;48.830;9.262;2022-08-21T14:44:09;98405.63;;;28.69;35.43
7760;BME280;3924;48.830;9.262;2022-08-21T14:46:36;98407.06;;;28.46;35.88
7760;BME280;3924;48.830;9.262;2022-08-21T14:49:23;98402.53;;;28.59;36.33
7760;BME280;3924;48.830;9.262;2022-08-21T14:51:52;98403.47;;;28.80;35.28
7760;BME280;3924;48.830;9.262;2022-08-21T14:54:28;98389.75;;;28.96;35.46
7760;BME280;3924;48.830;9.262;2022-08-21T14:57:10;98384.41;;;29.05;34.77
7760;BME280;3924;48.830;9.262;2022-08-21T14:59:37;98389.63;;;29.03;35.34
7760;BME280;3924;48.830;9.262;2022-08-21T15:02:04;98382.09;;;29.00;34.98
7760;BME280;3924;48.830;9.262;2022-08-21T15:04:32;98378.56;;;28.96;35.03
7760;BME280;3924;48.830;9.262;2022-08-21T15:06:59;98375.41;;;28.94;34.90